Time;durP1;ratioP1;P1;durP2;ratioP2;P2;SDS_P1;SDS_P2;PMS_P1;PMS_P2;Temp;Humidity;BMP_temperature;BMP_pressure;BME280_temperature;BME280_humidity;BME280_pressure;Samples;Min_cycle;Max_cycle;Signal;HPM_P1;HPM_P2
2022/12/02 00:02:06;;;;;;;44.42;21.20;;;3.60;99.90;;;;;;4982227;28;20027;-80
2022/12/02 00:04:32;;;;;;;42.22;21.38;;;3.60;99.90;;;;;;4981826;28;20118;-79
2022/12/02 00:06:59;;;;;;;40.15;19.90;;;3.60;99.90;;;;;;4980784;28;20097;-81
2022/12/02 00:09:35;;;;;;;41.85;22.15;;;3.60;99.90;;;;;;4982152;28;20034;-82
2022/12/02 00:12:21;;;;;;;39.33;20.65;;;3.50;99.90;;;;;;4980494;28;20075;-80
2022/12/02 00:15:00;;;;;;;47.05;22.25;;;3.50;99.90;;;;;;4984434;28;20031;-81
2022/12/02 00:17:26;;;;;;;47.45;22.45;;;3.50;99.90;;;;;;4964085;28;20023;-82
2022/12/02 00:19:52;;;;;;;43.53;21.40;;;3.50;99.90;;;;;;4979751;28;20034;-80
2022/12/02 00:22:18;;;;;;;36.47;18.95;;;3.50;99.90;;;;;;4964213;28;20031;-81
2022/12/02 00:24:44;;;;;;;33.42;19.35;;;3.50;99.90;;;;;;4984909;28;20046;-82
2022/12/02 00:27:10;;;;;;;37.15;19.52;;;3.50;99.90;;;;;;4981384;28;20034;-80
2022/12/02 00:29:35;;;;;;;42.22;19.85;;;3.50;99.90;;;;;;4985045;28;20027;-81
2022/12/02 00:32:01;;;;;;;39.65;21.20;;;3.50;99.90;;;;;;4988973;28;20053;-81
2022/12/02 00:34:27;;;;;;;35.78;18.38;;;3.50;99.90;;;;;;4937142;28;1415100;-80
2022/12/02 00:36:52;;;;;;;34.22;18.05;;;3.50;99.90;;;;;;4988204;28;20015;-80
2022/12/02 00:39:18;;;;;;;34.75;17.25;;;3.60;99.90;;;;;;4980023;28;20127;-81
2022/12/02 00:41:44;;;;;;;26.50;15.82;;;3.60;99.90;;;;;;4980094;28;20109;-80
2022/12/02 00:46:54;;;;;;;44.53;21.35;;;3.70;99.90;;;;;;4982906;28;20491;-82
2022/12/02 00:49:20;;;;;;;45.22;21.92;;;3.60;99.90;;;;;;4981980;28;20030;-80
2022/12/02 00:51:46;;;;;;;40.33;19.65;;;3.60;99.90;;;;;;4965963;28;20094;-80
2022/12/02 00:54:13;;;;;;;32.05;17.42;;;3.60;99.90;;;;;;4983047;28;20476;-81
2022/12/02 00:56:39;;;;;;;40.88;20.00;;;3.60;99.90;;;;;;4982953;28;20519;-81
2022/12/02 00:59:05;;;;;;;48.70;21.35;;;3.60;99.90;;;;;;4983161;28;20031;-81
2022/12/02 01:01:32;;;;;;;40.20;20.48;;;3.50;99.90;;;;;;4982948;28;20054;-82
2022/12/02 01:03:58;;;;;;;33.95;18.02;;;3.50;99.90;;;;;;4981763;28;20046;-81
2022/12/02 01:06:24;;;;;;;40.40;19.25;;;3.50;99.90;;;;;;4982831;28;20054;-82
2022/12/02 01:08:50;;;;;;;50.28;20.80;;;3.50;99.90;;;;;;4982564;28;20022;-79
2022/12/02 01:11:16;;;;;;;41.70;19.77;;;3.50;99.90;;;;;;4984178;28;20073;-80
2022/12/02 01:13:42;;;;;;;41.50;20.75;;;3.50;99.90;;;;;;4983505;28;20035;-80
2022/12/02 01:16:08;;;;;;;38.92;21.15;;;3.50;99.90;;;;;;4982602;28;20022;-80
2022/12/02 01:18:34;;;;;;;45.03;22.42;;;3.40;99.90;;;;;;4986025;28;20030;-81
2022/12/02 01:21:00;;;;;;;37.97;19.80;;;3.40;99.90;;;;;;4982268;28;20126;-80
2022/12/02 01:23:26;;;;;;;40.15;19.92;;;3.40;99.90;;;;;;4981572;28;20054;-80
2022/12/02 01:25:51;;;;;;;48.17;21.85;;;3.50;99.90;;;;;;4982554;28;20027;-80
2022/12/02 01:28:17;;;;;;;42.22;22.80;;;3.40;99.90;;;;;;4967331;28;20476;-80
2022/12/02 01:30:43;;;;;;;36.20;19.85;;;3.40;99.90;;;;;;4986988;28;20030;-80
2022/12/02 01:33:09;;;;;;;38.40;20.83;;;3.40;99.90;;;;;;4982346;28;20027;-80
2022/12/02 01:35:34;;;;;;;34.95;18.65;;;3.40;99.90;;;;;;4985487;28;20117;-81
2022/12/02 01:38:00;;;;;;;38.42;18.65;;;3.40;99.90;;;;;;4988434;28;20027;-80
2022/12/02 01:40:27;;;;;;;34.97;17.10;;;3.40;99.90;;;;;;4996716;28;20053;-81
2022/12/02 01:42:53;;;;;;;36.25;17.05;;;3.50;99.90;;;;;;4999297;28;20107;-81
2022/12/02 01:45:19;;;;;;;32.63;17.92;;;3.50;99.90;;;;;;4998520;28;20027;-81
2022/12/02 01:47:45;;;;;;;37.70;17.48;;;3.50;99.90;;;;;;4998377;28;20035;-80
2022/12/02 01:50:13;;;;;;;38.42;19.80;;;3.50;99.90;;;;;;4984354;28;20066;-80
2022/12/02 01:52:39;;;;;;;46.22;23.38;;;3.60;99.90;;;;;;4982764;28;20042;-80
2022/12/02 01:55:11;;;;;;;44.10;22.58;;;3.50;99.90;;;;;;4984167;28;20031;-80
2022/12/02 01:57:36;;;;;;;34.73;19.33;;;3.50;99.90;;;;;;4981397;28;20033;-81
2022/12/02 02:00:04;;;;;;;39.97;19.80;;;3.50;99.90;;;;;;4981320;28;20428;-81
2022/12/02 02:02:34;;;;;;;42.35;20.48;;;3.50;99.90;;;;;;4963468;28;20027;-80
2022/12/02 02:05:05;;;;;;;36.05;19.08;;;3.50;99.90;;;;;;4980979;28;20019;-80
2022/12/02 02:07:31;;;;;;;35.95;17.25;;;3.50;99.90;;;;;;4984744;28;20036;-79
2022/12/02 02:09:57;;;;;;;36.78;19.08;;;3.60;99.90;;;;;;4979578;28;20019;-80
2022/12/02 02:12:23;;;;;;;41.25;19.67;;;3.60;99.90;;;;;;4978095;28;20111;-79
2022/12/02 02:14:50;;;;;;;38.85;19.13;;;3.60;99.90;;;;;;4980062;28;20391;-80
2022/12/02 02:17:16;;;;;;;39.15;18.98;;;3.60;99.90;;;;;;4961925;28;20031;-80
2022/12/02 02:19:43;;;;;;;48.65;22.67;;;3.60;99.90;;;;;;4980751;28;20050;-80
2022/12/02 02:22:35;;;;;;;48.90;23.30;;;3.60;99.90;;;;;;4978884;28;20050;-81
2022/12/02 02:25:00;;;;;;;47.88;22.90;;;3.50;99.90;;;;;;4979972;28;20026;-79
2022/12/02 02:27:26;;;;;;;53.60;24.70;;;3.40;99.90;;;;;;4978741;28;20039;-81
2022/12/02 02:29:52;;;;;;;50.53;24.20;;;3.40;99.90;;;;;;4980253;28;20026;-80
2022/12/02 02:32:18;;;;;;;43.95;22.25;;;3.40;99.90;;;;;;4980191;28;20093;-80
2022/12/02 02:34:43;;;;;;;46.72;22.77;;;3.30;99.90;;;;;;4980362;28;20038;-80
2022/12/02 02:37:09;;;;;;;45.45;20.13;;;3.30;99.90;;;;;;4982270;28;20464;-80
2022/12/02 02:39:35;;;;;;;45.05;22.75;;;3.30;99.90;;;;;;4980398;28;20023;-80
2022/12/02 02:42:00;;;;;;;41.60;19.83;;;3.30;99.90;;;;;;4979504;28;20111;-80
2022/12/02 02:44:28;;;;;;;40.90;18.98;;;3.30;99.90;;;;;;4978203;28;20149;-80
2022/12/02 02:46:59;;;;;;;40.45;20.83;;;3.30;99.90;;;;;;4978704;28;20070;-81
2022/12/02 02:49:25;;;;;;;37.13;19.45;;;3.30;99.90;;;;;;4990238;28;20090;-81
2022/12/02 02:51:51;;;;;;;38.40;19.13;;;3.30;99.90;;;;;;4993263;28;20050;-81
2022/12/02 02:54:17;;;;;;;37.95;19.73;;;3.40;99.90;;;;;;4979192;28;20327;-81
2022/12/02 02:56:42;;;;;;;40.55;19.48;;;3.40;99.90;;;;;;4979769;28;20154;-80
2022/12/02 02:59:15;;;;;;;38.38;20.17;;;3.50;99.90;;;;;;4980385;28;20033;-81
2022/12/02 03:01:44;;;;;;;45.47;21.33;;;3.50;99.90;;;;;;4978216;28;20125;-82
2022/12/02 03:04:14;;;;;;;43.83;21.60;;;3.50;99.90;;;;;;4979970;28;20046;-80
2022/12/02 03:06:42;;;;;;;45.22;22.20;;;3.50;99.90;;;;;;4978989;28;20038;-79
2022/12/02 03:09:10;;;;;;;46.80;22.60;;;3.40;99.90;;;;;;4982809;28;20349;-80
2022/12/02 03:11:38;;;;;;;38.30;20.38;;;3.40;99.90;;;;;;4979621;28;20037;-80
2022/12/02 03:14:04;;;;;;;43.90;21.75;;;3.40;99.90;;;;;;4981617;28;20484;-79
2022/12/02 03:16:31;;;;;;;44.35;22.13;;;3.40;99.90;;;;;;4976040;28;20061;-81
2022/12/02 03:18:57;;;;;;;39.20;21.08;;;3.50;99.90;;;;;;4978467;28;20042;-80
2022/12/02 03:21:24;;;;;;;42.50;21.65;;;3.50;99.90;;;;;;4980180;28;20034;-82
2022/12/02 03:23:52;;;;;;;42.28;22.42;;;3.50;99.90;;;;;;4960816;28;20480;-80
2022/12/02 03:26:18;;;;;;;45.15;22.85;;;3.50;99.90;;;;;;4978010;28;20019;-79
2022/12/02 03:28:45;;;;;;;45.08;22.50;;;3.50;99.90;;;;;;4978506;28;20106;-81
2022/12/02 03:31:12;;;;;;;44.85;22.75;;;3.50;99.90;;;;;;4978522;28;20081;-80
2022/12/02 03:33:38;;;;;;;43.13;21.60;;;3.40;99.90;;;;;;4977342;28;20097;-80
2022/12/02 03:36:05;;;;;;;38.28;20.55;;;3.40;99.90;;;;;;4977081;28;20039;-80
2022/12/02 03:38:32;;;;;;;45.60;22.55;;;3.40;99.90;;;;;;4977710;28;20121;-80
2022/12/02 03:40:59;;;;;;;46.33;22.60;;;3.50;99.90;;;;;;4976855;28;20042;-80
2022/12/02 03:43:25;;;;;;;47.65;23.83;;;3.50;99.90;;;;;;4978614;28;20043;-81
2022/12/02 03:45:54;;;;;;;45.53;22.45;;;3.40;99.90;;;;;;4979017;28;20022;-80
2022/12/02 03:48:21;;;;;;;48.10;23.65;;;3.40;99.90;;;;;;4977072;28;20034;-80
2022/12/02 03:50:49;;;;;;;46.15;22.80;;;3.30;99.90;;;;;;4978604;28;20057;-80
2022/12/02 03:53:14;;;;;;;48.88;24.33;;;3.30;99.90;;;;;;4961584;28;20030;-80
2022/12/02 03:55:40;;;;;;;56.83;25.17;;;3.30;99.90;;;;;;4980919;28;20107;-81
2022/12/02 03:58:07;;;;;;;51.90;24.10;;;3.30;99.90;;;;;;4978142;28;20030;-81
2022/12/02 04:00:34;;;;;;;53.67;25.52;;;3.30;99.90;;;;;;4979807;28;20035;-81
2022/12/02 04:03:00;;;;;;;54.13;25.88;;;3.20;99.90;;;;;;4962175;28;20475;-80
2022/12/02 04:05:26;;;;;;;52.47;24.42;;;3.20;99.90;;;;;;4977902;28;20102;-81
2022/12/02 04:07:52;;;;;;;58.08;25.20;;;3.20;99.90;;;;;;4975173;28;20061;-80
2022/12/02 04:10:17;;;;;;;53.05;25.55;;;3.30;99.90;;;;;;4978139;28;20474;-81
2022/12/02 04:12:43;;;;;;;57.42;25.63;;;3.30;99.90;;;;;;4977496;28;20027;-80
2022/12/02 04:15:09;;;;;;;55.03;24.95;;;3.20;99.90;;;;;;4976585;28;20369;-83
2022/12/02 04:17:35;;;;;;;58.15;26.45;;;3.20;99.90;;;;;;4977262;28;20029;-80
2022/12/02 04:20:02;;;;;;;53.60;24.15;;;3.20;99.90;;;;;;4977549;28;20035;-81
2022/12/02 04:22:28;;;;;;;50.50;24.52;;;3.20;99.90;;;;;;4978232;28;20121;-81
2022/12/02 04:24:56;;;;;;;44.33;23.45;;;3.20;99.90;;;;;;4977426;28;20448;-81
2022/12/02 04:27:21;;;;;;;51.03;23.80;;;3.20;99.90;;;;;;4980937;28;20038;-81
2022/12/02 04:29:47;;;;;;;56.13;24.65;;;3.20;99.90;;;;;;4977767;28;20030;-81
2022/12/02 04:32:13;;;;;;;55.10;25.50;;;3.20;99.90;;;;;;4980799;28;20031;-81
2022/12/02 04:38:01;;;;;;;59.63;27.63;;;3.20;99.90;;;;;;4974256;28;20066;-79
2022/12/02 04:40:26;;;;;;;53.10;25.10;;;3.30;99.90;;;;;;4976571;28;20027;-80
2022/12/02 04:42:52;;;;;;;56.15;23.90;;;3.20;99.90;;;;;;4977574;28;20023;-80
2022/12/02 04:45:18;;;;;;;53.38;24.65;;;3.30;99.90;;;;;;4976751;28;20345;-82
2022/12/02 04:47:43;;;;;;;57.15;26.92;;;3.30;99.90;;;;;;4977030;28;20038;-80
2022/12/02 04:50:09;;;;;;;54.70;26.00;;;3.30;99.90;;;;;;4976435;28;20027;-80
2022/12/02 04:52:35;;;;;;;53.40;24.75;;;3.20;99.90;;;;;;4977905;28;20019;-80
2022/12/02 04:55:01;;;;;;;50.30;24.77;;;3.20;99.90;;;;;;4979028;28;20098;-80
2022/12/02 04:57:27;;;;;;;60.97;27.23;;;3.20;99.90;;;;;;4975921;28;20098;-80
2022/12/02 04:59:52;;;;;;;58.53;25.08;;;3.20;99.90;;;;;;4977968;28;20022;-79
2022/12/02 05:02:18;;;;;;;54.33;24.85;;;3.20;99.90;;;;;;4978015;28;20040;-82
2022/12/02 05:04:44;;;;;;;55.00;24.65;;;3.30;99.90;;;;;;4978981;28;20046;-81
2022/12/02 05:07:09;;;;;;;51.40;24.08;;;3.30;99.90;;;;;;4982883;28;20098;-82
2022/12/02 05:09:35;;;;;;;55.70;25.58;;;3.30;99.90;;;;;;4981577;28;20468;-80
2022/12/02 05:12:01;;;;;;;51.22;23.67;;;3.30;99.90;;;;;;4980170;28;20046;-81
2022/12/02 05:14:27;;;;;;;52.05;25.60;;;3.30;99.90;;;;;;4983302;28;20027;-82
2022/12/02 05:16:52;;;;;;;57.97;25.63;;;3.20;99.90;;;;;;4985660;28;20026;-81
2022/12/02 05:19:18;;;;;;;59.13;25.83;;;3.20;99.90;;;;;;4983242;28;20441;-81
2022/12/02 05:21:43;;;;;;;57.67;26.77;;;3.20;99.90;;;;;;4982030;28;20039;-82
2022/12/02 05:24:09;;;;;;;62.20;28.23;;;3.20;99.90;;;;;;4982058;28;20066;-80
2022/12/02 05:26:35;;;;;;;58.10;27.55;;;3.20;99.90;;;;;;4983161;28;20042;-80
2022/12/02 05:29:00;;;;;;;58.97;26.85;;;3.20;99.90;;;;;;4985105;28;20524;-81
2022/12/02 05:31:26;;;;;;;61.50;27.77;;;3.20;99.90;;;;;;4981978;28;20126;-81
2022/12/02 05:33:51;;;;;;;55.53;24.80;;;3.20;99.90;;;;;;4982336;28;20023;-81
2022/12/02 05:36:17;;;;;;;52.60;25.85;;;3.20;99.90;;;;;;4964271;28;20034;-80
2022/12/02 05:38:43;;;;;;;53.40;25.50;;;3.20;99.90;;;;;;4985534;28;20011;-81
2022/12/02 05:41:08;;;;;;;56.35;25.88;;;3.20;99.90;;;;;;4984034;28;20098;-81
2022/12/02 05:43:38;;;;;;;67.68;28.50;;;3.20;99.90;;;;;;4985908;28;20026;-81
2022/12/02 05:46:14;;;;;;;59.58;26.38;;;3.20;99.90;;;;;;4983823;28;20034;-81
2022/12/02 05:48:41;;;;;;;60.25;28.35;;;3.20;99.90;;;;;;4963882;28;20464;-81
2022/12/02 05:51:19;;;;;;;56.38;25.55;;;3.20;99.90;;;;;;4983027;28;20062;-81
2022/12/02 05:53:46;;;;;;;59.03;26.67;;;3.20;99.90;;;;;;4980234;28;20026;-80
2022/12/02 05:56:24;;;;;;;61.40;28.50;;;3.20;99.90;;;;;;4981964;28;20114;-81
2022/12/02 05:58:50;;;;;;;55.67;25.27;;;3.30;99.90;;;;;;4983150;28;20391;-82
2022/12/02 06:01:37;;;;;;;61.85;26.08;;;3.30;99.90;;;;;;4984802;28;20029;-82
2022/12/02 06:04:04;;;;;;;54.50;24.77;;;3.30;99.90;;;;;;4963539;28;20035;-81
2022/12/02 06:06:34;;;;;;;51.45;25.13;;;3.30;99.90;;;;;;4963327;29;20023;-82
2022/12/02 06:09:00;;;;;;;58.83;25.70;;;3.30;99.90;;;;;;4965839;29;20030;-81
2022/12/02 06:11:30;;;;;;;54.40;24.75;;;3.30;99.90;;;;;;4963971;29;20051;-82
2022/12/02 06:14:02;;;;;;;46.42;22.48;;;3.40;99.90;;;;;;4982234;28;20053;-82
2022/12/02 06:16:30;;;;;;;43.67;22.08;;;3.40;99.90;;;;;;4982638;28;20034;-81
2022/12/02 06:18:58;;;;;;;57.42;25.80;;;3.40;99.90;;;;;;4982441;28;20073;-81
2022/12/02 06:21:24;;;;;;;62.08;26.05;;;3.40;99.90;;;;;;4983482;28;20046;-80
2022/12/02 06:23:54;;;;;;;57.55;25.40;;;3.40;99.90;;;;;;4984000;28;20062;-79
2022/12/02 06:26:20;;;;;;;45.38;22.48;;;3.40;99.90;;;;;;4995867;28;20042;-80
2022/12/02 06:29:14;;;;;;;54.10;23.27;;;3.40;99.90;;;;;;4998391;28;20054;-80
2022/12/02 06:31:42;;;;;;;52.33;22.58;;;3.50;99.90;;;;;;4998743;28;20035;-80
2022/12/02 06:34:35;;;;;;;49.83;24.52;;;3.40;99.90;;;;;;4998635;28;20164;-80
2022/12/02 06:37:18;;;;;;;55.88;25.25;;;3.40;99.90;;;;;;4998517;28;20074;-80
2022/12/02 06:39:46;;;;;;;48.53;23.63;;;3.40;99.90;;;;;;4997604;28;20045;-81
2022/12/02 06:42:31;;;;;;;48.42;23.50;;;3.40;99.90;;;;;;4998198;28;20033;-83
2022/12/02 06:45:10;;;;;;;54.08;24.55;;;3.50;99.90;;;;;;4998651;28;20090;-80
2022/12/02 06:47:35;;;;;;;48.88;24.85;;;3.50;99.90;;;;;;4997667;28;20066;-80
2022/12/02 06:50:29;;;;;;;58.78;27.52;;;3.50;99.90;;;;;;4996429;28;20094;-80
2022/12/02 06:53:18;;;;;;;51.97;25.35;;;3.40;99.90;;;;;;4998403;28;20023;-79
2022/12/02 06:55:44;;;;;;;46.38;23.23;;;3.40;99.90;;;;;;4998482;28;20029;-80
2022/12/02 06:58:31;;;;;;;44.92;22.05;;;3.50;99.90;;;;;;4981531;28;20023;-81
2022/12/02 07:01:25;;;;;;;43.53;21.70;;;3.50;99.90;;;;;;4978334;28;20030;-80
2022/12/02 07:04:07;;;;;;;49.97;22.83;;;3.50;99.90;;;;;;4963924;28;20014;-79
2022/12/02 07:06:41;;;;;;;53.60;25.40;;;3.50;99.90;;;;;;4981053;28;20027;-80
2022/12/02 07:09:24;;;;;;;54.60;24.83;;;3.50;99.90;;;;;;4979375;28;20062;-80
2022/12/02 07:11:50;;;;;;;;;;;3.50;99.90;;;;;;4979779;28;20027;-79
2022/12/02 07:14:43;;;;;;;61.55;28.17;;;3.50;99.90;;;;;;4979348;28;19926;-81
2022/12/02 07:17:30;;;;;;;50.22;23.30;;;3.50;99.90;;;;;;4980320;28;20031;-79
2022/12/02 07:20:14;;;;;;;52.70;24.73;;;3.40;99.90;;;;;;4981612;28;20035;-80
2022/12/02 07:22:54;;;;;;;46.88;23.05;;;3.40;99.90;;;;;;4981568;28;20039;-80
2022/12/02 07:25:37;;;;;;;42.13;21.92;;;3.50;99.90;;;;;;4980202;28;20027;-79
2022/12/02 07:28:21;;;;;;;;;;;3.50;99.90;;;;;;4981235;28;20090;-82
2022/12/02 07:31:09;;;;;;;42.97;19.58;;;3.50;99.90;;;;;;4978889;28;20012;-79
2022/12/02 07:33:37;;;;;;;44.53;21.70;;;3.60;99.90;;;;;;4980179;28;20101;-80
2022/12/02 07:36:03;;;;;;;53.95;23.08;;;3.60;99.90;;;;;;4978775;28;20042;-81
2022/12/02 07:38:29;;;;;;;48.67;23.73;;;3.50;99.90;;;;;;4982248;28;20023;-79
2022/12/02 07:40:54;;;;;;;49.47;25.02;;;3.50;99.90;;;;;;4979049;28;20113;-80
2022/12/02 07:43:20;;;;;;;52.28;23.33;;;3.50;99.90;;;;;;4978149;28;20033;-81
2022/12/02 07:45:46;;;;;;;53.83;25.33;;;3.50;99.90;;;;;;4978869;28;20082;-81
2022/12/02 07:48:11;;;;;;;52.55;24.50;;;3.50;99.90;;;;;;4977868;28;20241;-80
2022/12/02 07:50:40;;;;;;;48.53;23.65;;;3.50;99.90;;;;;;4979468;28;20050;-82
2022/12/02 07:53:06;;;;;;;46.95;22.73;;;3.50;99.90;;;;;;4980964;28;20015;-81
2022/12/02 07:55:31;;;;;;;45.50;22.05;;;3.60;99.90;;;;;;4987588;28;20022;-81
2022/12/02 07:57:57;;;;;;;44.40;21.35;;;3.50;99.90;;;;;;4978884;28;20023;-81
2022/12/02 08:00:24;;;;;;;48.88;23.17;;;3.60;99.90;;;;;;4979298;28;20109;-80
2022/12/02 08:02:50;;;;;;;54.72;25.52;;;3.60;99.90;;;;;;4978547;28;20046;-82
2022/12/02 08:05:15;;;;;;;54.53;25.40;;;3.60;99.90;;;;;;4975836;28;20030;-81
2022/12/02 08:07:41;;;;;;;55.13;24.83;;;3.60;99.90;;;;;;4974248;28;20027;-81
2022/12/02 08:10:10;;;;;;;47.45;22.60;;;3.60;99.90;;;;;;4977585;28;20023;-81
2022/12/02 08:12:37;;;;;;;51.83;23.20;;;3.60;99.90;;;;;;4976622;28;20023;-79
2022/12/02 08:15:04;;;;;;;46.47;22.58;;;3.60;99.90;;;;;;4977878;28;20097;-80
2022/12/02 08:17:30;;;;;;;55.40;25.17;;;3.60;99.90;;;;;;4977383;28;20038;-80
2022/12/02 08:19:55;;;;;;;48.88;24.08;;;3.60;99.90;;;;;;4984567;28;20023;-83
2022/12/02 08:22:21;;;;;;;60.58;26.23;;;3.60;99.90;;;;;;4963785;28;20034;-81
2022/12/02 08:24:47;;;;;;;50.88;23.00;;;3.60;99.90;;;;;;4985628;28;20027;-81
2022/12/02 08:27:12;;;;;;;53.80;24.67;;;3.60;99.90;;;;;;4978740;28;20023;-81
2022/12/02 08:29:38;;;;;;;57.72;27.30;;;3.70;99.90;;;;;;4983982;28;20101;-80
2022/12/02 08:32:04;;;;;;;64.65;28.30;;;3.70;99.90;;;;;;4983624;28;20042;-81
2022/12/02 08:34:30;;;;;;;57.55;28.02;;;3.60;99.90;;;;;;4981967;28;20054;-80
2022/12/02 08:36:59;;;;;;;59.78;27.90;;;3.60;99.90;;;;;;4963954;28;20027;-81
2022/12/02 08:39:24;;;;;;;51.05;25.27;;;3.60;99.90;;;;;;4964433;28;20137;-82
2022/12/02 08:41:50;;;;;;;49.35;23.98;;;3.70;99.90;;;;;;4981508;28;20118;-80
2022/12/02 08:44:16;;;;;;;51.78;23.65;;;3.60;99.90;;;;;;4987397;28;20396;-80
2022/12/02 08:46:42;;;;;;;44.53;21.35;;;3.70;99.90;;;;;;4984398;28;20057;-82
2022/12/02 08:49:07;;;;;;;54.83;26.30;;;3.80;99.90;;;;;;4966935;28;20026;-80
2022/12/02 08:51:34;;;;;;;55.45;26.60;;;3.80;99.90;;;;;;4985648;28;20027;-81
2022/12/02 08:54:00;;;;;;;57.53;24.88;;;3.70;99.90;;;;;;4972530;28;20033;-81
2022/12/02 08:56:30;;;;;;;54.63;25.52;;;3.60;99.90;;;;;;4989503;28;20034;-81
2022/12/02 08:58:55;;;;;;;52.78;24.80;;;3.60;99.90;;;;;;4990638;28;20054;-79
2022/12/02 09:01:21;;;;;;;43.05;21.85;;;3.60;99.90;;;;;;4992848;28;20031;-79
2022/12/02 09:03:47;;;;;;;54.65;24.88;;;3.70;99.90;;;;;;4990418;28;20484;-79
2022/12/02 09:06:12;;;;;;;52.70;25.33;;;3.70;99.90;;;;;;4987303;28;20484;-80
2022/12/02 09:08:38;;;;;;;51.78;24.45;;;3.70;99.90;;;;;;4987813;28;20081;-81
2022/12/02 09:11:04;;;;;;;49.75;22.52;;;3.70;99.90;;;;;;4986887;28;20467;-81
2022/12/02 09:13:29;;;;;;;50.30;24.13;;;3.70;99.90;;;;;;4986471;28;20077;-81
2022/12/02 09:15:55;;;;;;;45.72;22.27;;;3.60;99.90;;;;;;4987279;28;20031;-80
2022/12/02 09:18:21;;;;;;;48.85;23.48;;;3.60;99.90;;;;;;4985885;28;20030;-80
2022/12/02 09:20:47;;;;;;;46.97;22.48;;;3.70;99.90;;;;;;4986309;28;20034;-80
2022/12/02 09:23:12;;;;;;;47.10;22.08;;;3.60;99.90;;;;;;4987436;28;20054;-80
2022/12/02 09:25:38;;;;;;;40.13;20.15;;;3.70;99.90;;;;;;4986471;28;20018;-81
2022/12/02 09:28:04;;;;;;;40.78;19.85;;;3.80;99.90;;;;;;4985324;28;20373;-80
2022/12/02 09:30:29;;;;;;;39.55;18.90;;;3.90;99.90;;;;;;4985858;28;20391;-81
2022/12/02 09:32:55;;;;;;;43.95;21.27;;;4.00;99.90;;;;;;4988070;28;20030;-81
2022/12/02 09:35:21;;;;;;;43.80;22.00;;;3.90;99.90;;;;;;4987722;28;20098;-81
2022/12/02 09:37:46;;;;;;;41.95;21.50;;;3.90;99.90;;;;;;4985885;28;20026;-81
2022/12/02 09:40:13;;;;;;;48.92;22.92;;;3.90;99.90;;;;;;4988436;28;20058;-81
2022/12/02 09:42:38;;;;;;;52.33;24.38;;;3.90;99.90;;;;;;4985685;28;20027;-81
2022/12/02 09:45:05;;;;;;;57.88;27.77;;;3.90;99.90;;;;;;4987940;28;20033;-81
2022/12/02 09:47:30;;;;;;;48.08;24.60;;;3.80;99.90;;;;;;4984750;28;20038;-81
2022/12/02 09:49:56;;;;;;;45.50;22.98;;;3.90;99.90;;;;;;4986565;28;20038;-81
2022/12/02 09:52:24;;;;;;;48.00;23.73;;;3.90;99.90;;;;;;4984003;28;20026;-81
2022/12/02 09:54:56;;;;;;;47.83;21.30;;;4.00;99.90;;;;;;4985190;28;20365;-81
2022/12/02 09:57:29;;;;;;;40.67;20.58;;;4.10;99.90;;;;;;4984600;28;20023;-82
2022/12/02 09:59:57;;;;;;;48.50;22.40;;;4.20;99.90;;;;;;4987419;28;20042;-82
2022/12/02 10:02:35;;;;;;;42.88;22.02;;;4.20;99.90;;;;;;4982761;28;20031;-81
2022/12/02 10:05:13;;;;;;;47.65;22.80;;;4.10;99.90;;;;;;4982944;28;20041;-81
2022/12/02 10:07:39;;;;;;;49.42;23.45;;;4.20;99.90;;;;;;4984662;28;20031;-82
2022/12/02 10:10:05;;;;;;;51.50;24.23;;;4.20;99.90;;;;;;4984935;28;20308;-82
2022/12/02 10:12:32;;;;;;;44.03;21.77;;;4.20;99.90;;;;;;4968171;28;20026;-82
2022/12/02 10:14:59;;;;;;;41.50;21.40;;;4.20;99.90;;;;;;4985840;28;20037;-81
2022/12/02 10:17:25;;;;;;;42.38;21.60;;;4.20;99.90;;;;;;4984836;28;20031;-81
2022/12/02 10:19:51;;;;;;;49.25;22.63;;;4.30;99.90;;;;;;4984462;28;20077;-81
2022/12/02 10:22:20;;;;;;;45.30;21.98;;;4.30;99.90;;;;;;4984805;28;20065;-81
2022/12/02 10:24:47;;;;;;;45.20;22.08;;;4.30;99.90;;;;;;4987189;28;20369;-80
2022/12/02 10:27:30;;;;;;;40.97;21.90;;;4.40;99.90;;;;;;4984659;28;20065;-81
2022/12/02 10:30:16;;;;;;;39.55;21.92;;;4.40;99.90;;;;;;4985698;28;20041;-80
2022/12/02 10:32:44;;;;;;;45.58;22.75;;;4.50;99.90;;;;;;4986403;28;20011;-82
2022/12/02 10:35:09;;;;;;;45.70;22.77;;;4.50;99.90;;;;;;4983379;28;20476;-80
2022/12/02 10:37:36;;;;;;;49.20;23.90;;;4.60;99.90;;;;;;4983393;28;20042;-80
2022/12/02 10:40:15;;;;;;;45.45;22.27;;;4.70;99.90;;;;;;4984454;28;20030;-81
2022/12/02 10:42:42;;;;;;;44.42;22.30;;;4.70;99.90;;;;;;4982199;28;20074;-83
2022/12/02 10:45:28;;;;;;;42.65;21.65;;;4.70;99.90;;;;;;4985056;28;20030;-81
2022/12/02 10:48:16;;;;;;;51.40;24.27;;;4.70;99.90;;;;;;4986961;28;20038;-80
2022/12/02 10:50:44;;;;;;;44.22;22.42;;;4.60;99.90;;;;;;4964797;28;20118;-82
2022/12/02 10:53:19;;;;;;;40.67;21.42;;;4.60;99.90;;;;;;4965734;29;20031;-81
2022/12/02 10:55:45;;;;;;;38.65;19.80;;;4.60;99.90;;;;;;4982801;28;20452;-80
2022/12/02 10:58:21;;;;;;;38.50;21.10;;;4.60;99.90;;;;;;4983575;28;20034;-82
2022/12/02 11:00:49;;;;;;;45.97;20.75;;;4.60;99.90;;;;;;4985093;28;20031;-81
2022/12/02 11:03:15;;;;;;;44.95;22.30;;;4.50;99.90;;;;;;4985107;28;20475;-83
2022/12/02 11:05:41;;;;;;;44.65;21.50;;;4.40;99.90;;;;;;4984211;28;20022;-82
2022/12/02 11:08:15;;;;;;;41.50;20.42;;;4.40;99.90;;;;;;4983970;28;20038;-82
2022/12/02 11:10:44;;;;;;;37.28;19.30;;;4.40;99.90;;;;;;4983563;28;20023;-81
2022/12/02 11:13:12;;;;;;;35.50;19.15;;;4.40;99.90;;;;;;4984871;28;20090;-81
2022/12/02 11:15:39;;;;;;;38.35;19.75;;;4.40;99.90;;;;;;4984008;28;20483;-82
2022/12/02 11:18:10;;;;;;;38.63;20.75;;;4.40;99.90;;;;;;4984352;28;20049;-82
2022/12/02 11:20:37;;;;;;;36.67;20.20;;;4.30;99.90;;;;;;4984175;28;20480;-81
2022/12/02 11:23:17;;;;;;;34.78;18.65;;;4.10;99.90;;;;;;4985161;28;20035;-82
2022/12/02 11:25:43;;;;;;;40.13;19.67;;;4.10;99.90;;;;;;4981764;28;20026;-82
2022/12/02 11:28:27;;;;;;;37.75;18.55;;;4.00;99.90;;;;;;4986420;28;20081;-82
2022/12/02 11:31:11;;;;;;;39.50;18.90;;;4.00;99.90;;;;;;4982311;28;20038;-82
2022/12/02 11:33:42;;;;;;;36.47;18.38;;;4.00;99.90;;;;;;4980441;28;20065;-82
2022/12/02 11:36:08;;;;;;;36.00;18.40;;;4.00;99.90;;;;;;4964834;28;20067;-81
2022/12/02 11:38:49;;;;;;;35.28;18.05;;;4.10;99.90;;;;;;4981691;28;20030;-81
2022/12/02 11:41:39;;;;;;;38.38;19.23;;;4.10;99.90;;;;;;4983457;28;20834;-80
2022/12/02 11:44:22;;;;;;;39.42;19.83;;;4.10;99.90;;;;;;4953552;28;20054;-80
2022/12/02 11:46:48;;;;;;;;;;;4.10;99.90;;;;;;4983310;28;20050;-80
2022/12/02 11:49:31;;;;;;;34.95;17.10;;;4.20;99.90;;;;;;4984334;28;19914;-81
2022/12/02 11:52:09;;;;;;;;;;;4.20;99.90;;;;;;4982978;28;20106;-80
2022/12/02 11:54:44;;;;;;;39.88;19.67;;;4.10;99.90;;;;;;4983885;28;19965;-80
2022/12/02 11:57:26;;;;;;;43.00;20.45;;;4.00;99.90;;;;;;4972318;28;20035;-79
2022/12/02 11:59:52;;;;;;;39.47;18.53;;;3.90;99.90;;;;;;4981030;28;20023;-81
2022/12/02 12:02:20;;;;;;;37.78;18.83;;;4.00;99.90;;;;;;4984971;28;20271;-81
2022/12/02 12:05:03;;;;;;;33.42;17.27;;;4.10;99.90;;;;;;4983424;28;20123;-82
2022/12/02 12:07:46;;;;;;;;;;;4.20;99.90;;;;;;4987379;28;20022;-82
2022/12/02 12:10:38;;;;;;;42.60;19.60;;;4.20;99.90;;;;;;4990890;28;19925;-81
2022/12/02 12:13:22;;;;;;;44.88;20.83;;;4.10;99.90;;;;;;4987125;28;20027;-81
2022/12/02 12:15:53;;;;;;;41.33;18.35;;;4.10;99.90;;;;;;4987356;28;20083;-80
2022/12/02 12:18:38;;;;;;;38.35;20.33;;;4.00;99.90;;;;;;4992939;28;20026;-80
2022/12/02 12:21:05;;;;;;;35.88;17.92;;;4.00;99.90;;;;;;4992957;28;20022;-81
2022/12/02 12:23:36;;;;;;;40.58;19.05;;;3.90;99.90;;;;;;4999031;28;20014;-79
2022/12/02 12:26:03;;;;;;;45.95;21.20;;;4.00;99.90;;;;;;5001402;28;20039;-78
2022/12/02 12:28:35;;;;;;;42.00;19.15;;;4.00;99.90;;;;;;4999829;28;20035;-79
2022/12/02 12:31:02;;;;;;;39.03;18.08;;;4.00;99.90;;;;;;4993519;28;20086;-81
2022/12/02 12:33:28;;;;;;;37.10;18.48;;;4.10;99.90;;;;;;4986010;28;20027;-80
2022/12/02 12:35:55;;;;;;;42.50;20.08;;;4.10;99.90;;;;;;4984571;28;20065;-80
2022/12/02 12:38:22;;;;;;;34.78;19.27;;;4.20;99.90;;;;;;4985554;28;20035;-81
2022/12/02 12:40:48;;;;;;;33.30;17.60;;;4.20;99.90;;;;;;4987464;28;20027;-81
2022/12/02 12:43:14;;;;;;;36.00;17.70;;;4.10;99.90;;;;;;4987263;28;20027;-80
2022/12/02 12:45:39;;;;;;;37.40;18.20;;;4.10;99.90;;;;;;4986034;28;20038;-80
2022/12/02 12:48:05;;;;;;;35.97;16.77;;;4.10;99.90;;;;;;4986659;28;20099;-80
2022/12/02 12:50:31;;;;;;;30.75;16.00;;;4.10;99.90;;;;;;4985560;28;20027;-80
2022/12/02 12:52:56;;;;;;;32.13;16.13;;;4.10;99.90;;;;;;4988606;28;20030;-80
2022/12/02 12:55:22;;;;;;;39.97;19.40;;;4.10;99.90;;;;;;4987278;28;20023;-81